UKLR/RWN METAR and TAF weather

Enter ICAO airport designator
Station Type Date Time Source
UKLR METAR 2021/04/13 08:30 UTC NOAA

UKLR 130830Z 15003MPS 090V200 CAVOK 17/M02 Q1017 NOSIG


Station Type Date Time Source
UKLR Decoded METAR 2021/04/13 08:30 UTC NOAA

Rivne, Ukraine (UKLR) 50-35N 026-08E
Apr 13, 2021 - 04:30 AM EDT / 2021.04.13 0830 UTC
Wind: from the SSE (150 degrees) at 7 MPH (6 KT) (direction variable):0
Visibility: greater than 7 mile(s):0
Temperature: 62 F (17 C)
Dew Point: 28 F (-2 C)
Relative Humidity: 27%
Pressure (altimeter): 30.03 in. Hg (1017 hPa)
ob: UKLR 130830Z 15003MPS 090V200 CAVOK 17/M02 Q1017 NOSIG
cycle: 8

Station Type Date Time Source
UKLR TAF 2019/08/16 12:15 UTC NOAA

TAF TAF UKLR 161105Z 1612/1821 35003MPS 9999 BKN020 SCT023CB

Example: see airport list